Time;durP1;ratioP1;P1;durP2;ratioP2;P2;SDS_P1;SDS_P2;PMS_P1;PMS_P2;Temp;Humidity;BMP_temperature;BMP_pressure;BME280_temperature;BME280_humidity;BME280_pressure;Samples;Min_cycle;Max_cycle;Signal;HPM_P1;HPM_P2
2022/10/09 00:01:30;;;;;;;9.90;3.50;;;;;;;8.47;72.53;99158.86;102043;1302;75436;-18
2022/10/09 00:03:58;;;;;;;5.20;3.10;;;;;;;8.24;72.67;99154.55;101856;1306;75994;-18
2022/10/09 00:06:27;;;;;;;10.80;3.40;;;;;;;8.00;73.04;99151.17;101843;1305;75258;-18
2022/10/09 00:08:55;;;;;;;5.70;1.80;;;;;;;7.81;73.61;99149.57;101893;1305;63601;-18
2022/10/09 00:11:24;;;;;;;8.50;3.00;;;;;;;8.21;73.82;99150.27;101956;1302;61920;-18
2022/10/09 00:13:51;;;;;;;8.30;3.40;;;;;;;8.76;72.65;99150.28;101959;1306;75382;-19
2022/10/09 00:16:19;;;;;;;4.60;2.90;;;;;;;8.80;72.00;99145.67;101926;1302;75867;-18
2022/10/09 00:18:47;;;;;;;6.30;3.10;;;;;;;8.59;72.19;99145.60;102048;1300;75300;-18
2022/10/09 00:21:25;;;;;;;8.30;3.00;;;;;;;8.31;72.41;99138.53;101989;1303;61576;-18
2022/10/09 00:23:53;;;;;;;6.80;3.50;;;;;;;8.00;72.92;99139.80;101972;1302;62947;-18
2022/10/09 00:26:21;;;;;;;7.70;3.60;;;;;;;7.74;73.34;99139.51;101892;1305;76126;-19
2022/10/09 00:28:48;;;;;;;10.40;3.40;;;;;;;7.51;73.97;99139.27;102078;1301;76698;-18
2022/10/09 00:31:15;;;;;;;5.80;2.40;;;;;;;7.33;74.23;99139.27;102078;1301;75102;-18
2022/10/09 00:33:42;;;;;;;6.50;2.90;;;;;;;7.74;75.67;99135.88;101935;1301;61665;-18
2022/10/09 00:36:27;;;;;;;12.30;3.80;;;;;;;8.24;74.51;99128.45;102052;1303;62795;-18
2022/10/09 00:38:54;;;;;;;5.70;3.10;;;;;;;8.31;74.05;99122.95;101815;1305;75329;-18
2022/10/09 00:41:27;;;;;;;11.60;4.20;;;;;;;8.19;73.98;99119.66;102077;1302;77006;-18
2022/10/09 00:44:03;;;;;;;5.40;3.00;;;;;;;8.01;73.77;99113.83;101837;1306;74951;-18
2022/10/09 00:46:38;;;;;;;9.60;3.50;;;;;;;7.78;74.03;99116.89;101997;1297;62652;-18
2022/10/09 00:49:21;;;;;;;18.20;4.10;;;;;;;7.55;74.50;99113.95;101817;1302;61162;-18
2022/10/09 00:51:48;;;;;;;9.10;2.90;;;;;;;7.38;75.11;99112.20;101946;1302;76238;-18
2022/10/09 00:54:17;;;;;;;8.50;2.60;;;;;;;7.92;75.00;99113.22;102068;1300;74815;-18
2022/10/09 00:56:44;;;;;;;13.70;3.20;;;;;;;8.51;73.71;99111.19;101806;1303;73937;-18
2022/10/09 00:59:11;;;;;;;15.90;3.50;;;;;;;8.58;73.05;99109.98;102045;1301;63010;-18
2022/10/09 01:01:40;;;;;;;6.40;3.30;;;;;;;8.43;73.10;99109.33;101850;1302;61911;-18
2022/10/09 01:04:07;;;;;;;8.70;3.30;;;;;;;8.20;73.29;99104.20;101863;1305;76263;-18
2022/10/09 01:06:56;;;;;;;7.80;3.00;;;;;;;7.93;73.97;99098.45;101972;1301;75678;-18
2022/10/09 01:09:34;;;;;;;8.80;3.40;;;;;;;7.64;75.47;99100.23;101986;1301;74285;-18
2022/10/09 01:12:18;;;;;;;8.80;3.30;;;;;;;7.49;75.87;99098.14;102048;1303;64519;-18
2022/10/09 01:15:17;;;;;;;6.20;2.90;;;;;;;8.10;75.28;99094.84;101928;1297;61795;-18
2022/10/09 01:18:06;;;;;;;9.00;3.40;;;;;;;8.53;73.75;99093.02;102012;1303;76304;-18
2022/10/09 01:20:40;;;;;;;13.60;2.90;;;;;;;8.46;73.34;99096.85;101991;1297;75346;-18
2022/10/09 01:23:15;;;;;;;12.10;3.10;;;;;;;8.20;73.33;99093.96;101863;1309;75294;-18
2022/10/09 01:25:55;;;;;;;10.90;3.30;;;;;;;7.89;74.68;99094.92;101880;1304;61600;-18
2022/10/09 01:28:23;;;;;;;7.70;3.10;;;;;;;7.64;75.04;99096.09;101885;1299;62865;-18
2022/10/09 01:30:50;;;;;;;5.30;2.20;;;;;;;7.47;75.74;99100.86;102142;1294;76251;-18
2022/10/09 01:33:17;;;;;;;10.10;3.70;;;;;;;7.82;75.96;99095.88;102041;1302;76726;-18
2022/10/09 01:35:45;;;;;;;12.80;3.50;;;;;;;8.24;74.76;99094.37;102026;1294;74482;-18
2022/10/09 01:38:11;;;;;;;7.40;3.20;;;;;;;8.24;74.63;99089.17;102061;1300;61798;-18
2022/10/09 01:40:38;;;;;;;9.30;3.20;;;;;;;8.12;74.63;99084.46;101976;1303;61563;-18
2022/10/09 01:43:05;;;;;;;5.10;3.50;;;;;;;7.92;75.42;99081.23;101878;1302;76404;-18
2022/10/09 01:45:41;;;;;;;8.90;3.80;;;;;;;7.77;75.56;99078.62;102026;1301;76729;-18
2022/10/09 01:48:11;;;;;;;4.10;3.00;;;;;;;7.64;76.15;99075.92;101825;1301;74215;-18
2022/10/09 01:50:41;;;;;;;15.50;2.90;;;;;;;8.15;75.45;99078.95;101838;1304;63121;-18
2022/10/09 01:53:11;;;;;;;5.70;3.30;;;;;;;8.57;73.73;99076.68;101864;1301;62446;-18
2022/10/09 01:55:48;;;;;;;7.00;3.20;;;;;;;8.54;73.28;99076.34;101857;1305;74413;-18
2022/10/09 01:58:25;;;;;;;10.80;3.30;;;;;;;8.38;73.54;99076.58;102067;1300;76761;-18
2022/10/09 02:01:17;;;;;;;4.40;3.30;;;;;;;8.13;74.28;99073.73;102058;1302;74831;-18
2022/10/09 02:03:47;;;;;;;5.30;2.90;;;;;;;7.88;75.09;99072.53;101958;1303;62755;-18
2022/10/09 02:06:15;;;;;;;6.70;2.40;;;;;;;7.77;75.36;99072.09;101809;1300;61603;-18
2022/10/09 02:08:43;;;;;;;6.80;2.70;;;;;;;8.17;74.85;99072.39;101798;1302;76610;-18
2022/10/09 02:11:11;;;;;;;7.30;3.10;;;;;;;8.50;73.61;99071.30;101849;1305;75791;-18
2022/10/09 02:13:38;;;;;;;4.40;2.70;;;;;;;8.45;73.07;99070.27;101857;1308;73890;-18
2022/10/09 02:16:19;;;;;;;6.00;3.50;;;;;;;8.24;73.53;99074.47;101927;1303;61175;-18
2022/10/09 02:19:03;;;;;;;9.80;3.30;;;;;;;7.97;73.87;99075.54;101875;1303;62081;-18
2022/10/09 02:21:45;;;;;;;6.20;2.90;;;;;;;7.68;74.76;99077.65;101916;1300;74237;-18
2022/10/09 02:24:18;;;;;;;4.50;2.10;;;;;;;7.50;75.13;99077.73;101877;1302;75686;-18
2022/10/09 02:26:45;;;;;;;6.80;2.10;;;;;;;7.99;75.15;99072.23;101672;1300;74987;-18
2022/10/09 02:29:12;;;;;;;4.90;2.80;;;;;;;8.43;73.78;99072.45;102078;1300;61582;-18
2022/10/09 02:31:40;;;;;;;5.10;2.90;;;;;;;8.42;73.15;99075.80;101946;1301;61725;-18
2022/10/09 02:34:10;;;;;;;4.40;2.80;;;;;;;8.20;73.59;99076.66;101914;1303;76502;-18
2022/10/09 02:36:37;;;;;;;6.20;3.20;;;;;;;7.94;74.52;99073.86;101866;1298;76756;-18
2022/10/09 02:39:05;;;;;;;5.50;2.80;;;;;;;7.82;74.75;99068.23;101919;1300;75006;-18
2022/10/09 02:41:32;;;;;;;5.40;2.60;;;;;;;7.64;75.51;99073.11;101912;1301;61875;-18
2022/10/09 02:43:59;;;;;;;7.10;3.10;;;;;;;7.81;75.82;99072.98;101944;1301;62828;-18
2022/10/09 02:46:26;;;;;;;4.30;2.90;;;;;;;8.31;74.20;99071.03;102077;1301;76322;-18
2022/10/09 02:48:53;;;;;;;6.50;3.50;;;;;;;8.37;73.51;99072.02;102006;1300;75588;-18
2022/10/09 02:51:20;;;;;;;5.20;2.90;;;;;;;8.28;73.81;99071.47;102016;1302;74150;-18
2022/10/09 02:53:47;;;;;;;4.10;2.40;;;;;;;8.11;74.15;99070.89;102109;1294;62626;-18
2022/10/09 02:56:14;;;;;;;5.40;3.00;;;;;;;7.93;74.61;99067.35;101961;1301;63051;-18
2022/10/09 02:58:41;;;;;;;9.30;2.70;;;;;;;7.83;75.07;99065.45;101854;1302;75399;-18
2022/10/09 03:01:08;;;;;;;4.20;2.30;;;;;;;8.21;74.31;99066.59;101962;1301;75555;-18
2022/10/09 03:03:35;;;;;;;5.50;2.80;;;;;;;8.52;73.21;99068.02;101845;1305;75208;-18
2022/10/09 03:06:03;;;;;;;6.10;3.20;;;;;;;8.48;72.93;99062.58;101919;1301;62892;-18
2022/10/09 03:08:30;;;;;;;5.10;2.90;;;;;;;8.32;73.47;99064.25;101857;1295;61869;-18
2022/10/09 03:10:57;;;;;;;3.40;2.50;;;;;;;8.15;73.62;99075.29;102043;1302;75352;-18
2022/10/09 03:13:24;;;;;;;3.00;2.20;;;;;;;8.00;74.17;99073.27;101960;1302;75415;-18
2022/10/09 03:15:51;;;;;;;3.80;2.00;;;;;;;7.87;74.45;99073.58;101974;1302;75453;-18
2022/10/09 03:18:18;;;;;;;4.70;1.80;;;;;;;8.29;74.38;99075.15;101997;1302;62924;-18
2022/10/09 03:20:45;;;;;;;5.50;2.90;;;;;;;8.84;72.27;99074.84;101935;1302;61718;-18
2022/10/09 03:23:12;;;;;;;9.10;2.70;;;;;;;9.00;71.82;99072.52;101914;1301;76396;-18
2022/10/09 03:25:39;;;;;;;3.70;2.10;;;;;;;8.87;71.89;99081.10;102112;1300;76815;-19
2022/10/09 03:28:06;;;;;;;7.30;2.60;;;;;;;8.75;72.25;99083.71;102074;1302;75178;-19
2022/10/09 03:30:33;;;;;;;4.60;2.80;;;;;;;8.54;72.57;99085.89;101907;1300;62266;-18
2022/10/09 03:33:00;;;;;;;6.90;2.90;;;;;;;8.36;73.29;99088.70;101894;1294;61811;-18
2022/10/09 03:35:27;;;;;;;5.10;3.00;;;;;;;8.23;74.07;99087.57;101955;1302;75366;-18
2022/10/09 03:37:54;;;;;;;3.70;2.10;;;;;;;8.20;74.23;99085.86;102098;1295;75605;-18
2022/10/09 03:40:21;;;;;;;4.50;2.60;;;;;;;8.78;73.39;99087.05;102054;1300;75198;-18
2022/10/09 03:42:48;;;;;;;5.00;2.40;;;;;;;9.36;71.44;99085.77;102098;1302;61878;-18
2022/10/09 03:45:15;;;;;;;8.00;2.70;;;;;;;9.45;70.84;99092.06;102106;1301;62869;-18
2022/10/09 03:47:43;;;;;;;6.80;2.50;;;;;;;9.32;70.58;99091.75;102083;1297;76048;-18
2022/10/09 03:50:10;;;;;;;6.70;2.60;;;;;;;9.13;70.96;99084.00;102074;1301;75671;-18
2022/10/09 03:52:37;;;;;;;3.80;2.30;;;;;;;8.83;71.45;99089.49;102036;1294;74148;-19
2022/10/09 03:55:04;;;;;;;8.00;2.90;;;;;;;8.51;72.45;99086.23;102047;1302;62863;-19
2022/10/09 03:57:32;;;;;;;5.70;2.70;;;;;;;8.35;73.07;99086.49;101858;1295;61534;-19
2022/10/09 03:59:59;;;;;;;3.80;1.80;;;;;;;8.24;73.74;99089.55;101953;1302;75442;-18
2022/10/09 04:02:26;;;;;;;5.00;2.00;;;;;;;8.83;73.02;99090.41;101991;1301;77263;-18
2022/10/09 04:04:53;;;;;;;5.00;2.40;;;;;;;9.49;71.43;99081.12;101883;1301;75053;-18
2022/10/09 04:07:20;;;;;;;3.50;2.40;;;;;;;9.54;70.10;99082.52;102003;1301;62185;-19
2022/10/09 04:09:47;;;;;;;4.30;2.50;;;;;;;9.33;70.35;99084.73;102067;1300;62541;-18
2022/10/09 04:12:14;;;;;;;5.90;2.90;;;;;;;9.15;70.83;99089.37;101869;1302;76025;-18
2022/10/09 04:14:41;;;;;;;11.90;2.60;;;;;;;8.92;71.46;99090.23;102033;1300;75399;-18
2022/10/09 04:17:08;;;;;;;5.60;3.10;;;;;;;8.72;72.19;99085.48;101277;1298;1212413;-18
2022/10/09 04:19:35;;;;;;;4.60;2.40;;;;;;;8.45;73.37;99087.01;101828;1297;61832;-18
2022/10/09 04:22:02;;;;;;;3.70;2.10;;;;;;;8.37;73.58;99092.75;102092;1301;61759;-18
2022/10/09 04:24:29;;;;;;;4.00;2.40;;;;;;;8.88;73.19;99089.95;102163;1301;76441;-18
2022/10/09 04:26:56;;;;;;;5.50;2.30;;;;;;;9.53;71.79;99089.47;102161;1301;74584;-18
2022/10/09 04:29:24;;;;;;;5.10;3.10;;;;;;;9.69;70.41;99087.44;102087;1301;74968;-18
2022/10/09 04:31:51;;;;;;;5.70;3.40;;;;;;;9.58;71.02;99085.52;101998;1301;62809;-18
2022/10/09 04:34:18;;;;;;;6.90;3.20;;;;;;;9.46;71.13;99085.57;102192;1301;62646;-18
2022/10/09 04:36:45;;;;;;;6.60;2.90;;;;;;;9.27;71.46;99089.90;102148;1301;75385;-18
2022/10/09 04:39:12;;;;;;;6.20;2.80;;;;;;;9.06;72.32;99092.82;102169;1301;76827;-18
2022/10/09 04:41:39;;;;;;;6.20;3.10;;;;;;;8.90;73.22;99096.92;102078;1302;74304;-18
2022/10/09 04:44:07;;;;;;;6.30;2.40;;;;;;;8.80;73.08;99097.66;102085;1302;62525;-18
2022/10/09 04:46:33;;;;;;;5.10;2.20;;;;;;;9.27;72.99;99097.87;102179;1301;62632;-18
2022/10/09 04:49:00;;;;;;;4.20;2.40;;;;;;;9.91;71.64;99093.36;102198;1301;76473;-19
2022/10/09 04:51:27;;;;;;;6.10;3.10;;;;;;;10.05;70.64;99099.70;102125;1302;75858;-18
2022/10/09 04:53:55;;;;;;;4.50;2.90;;;;;;;9.94;71.00;99108.75;102078;1298;74157;-18
2022/10/09 04:56:26;;;;;;;7.60;2.70;;;;;;;9.76;71.74;99105.95;101923;1301;63279;-18
2022/10/09 04:58:53;;;;;;;4.90;2.70;;;;;;;9.57;72.25;99109.66;102059;1301;61817;-18
2022/10/09 05:01:21;;;;;;;4.70;2.90;;;;;;;9.39;73.37;99114.12;102106;1299;76070;-19
2022/10/09 05:03:49;;;;;;;5.30;3.00;;;;;;;9.25;73.71;99118.94;101943;1300;76481;-18
2022/10/09 05:06:17;;;;;;;3.90;2.00;;;;;;;9.17;74.09;99121.84;102142;1300;75195;-18
2022/10/09 05:08:44;;;;;;;3.80;2.00;;;;;;;9.68;73.98;99121.61;101874;1304;61630;-18
2022/10/09 05:11:17;;;;;;;7.70;3.10;;;;;;;10.34;72.64;99120.90;102149;1300;61656;-18
2022/10/09 05:13:46;;;;;;;5.80;2.70;;;;;;;10.51;71.49;99121.69;101922;1303;76373;-18
2022/10/09 05:16:15;;;;;;;4.30;2.70;;;;;;;10.41;71.86;99122.41;101871;1298;76607;-18
2022/10/09 05:18:43;;;;;;;7.70;3.30;;;;;;;10.26;72.18;99121.03;101965;1302;74935;-18
2022/10/09 05:21:10;;;;;;;5.50;3.30;;;;;;;10.09;72.62;99117.13;101997;1295;61852;-18
2022/10/09 05:23:37;;;;;;;5.30;3.40;;;;;;;9.93;73.47;99123.02;102017;1299;61549;-18
2022/10/09 05:26:11;;;;;;;6.20;3.50;;;;;;;9.83;74.00;99118.80;102068;1300;76114;-18
2022/10/09 05:28:38;;;;;;;8.20;3.20;;;;;;;9.78;74.23;99121.04;102006;1302;77196;-18
2022/10/09 05:31:05;;;;;;;4.60;2.50;;;;;;;10.34;74.20;99119.30;102193;1299;72976;-18
2022/10/09 05:33:33;;;;;;;4.60;2.90;;;;;;;11.03;72.62;99120.80;101973;1300;61830;-18
2022/10/09 05:36:01;;;;;;;5.20;2.70;;;;;;;11.19;72.14;99124.35;102228;1302;62808;-18
2022/10/09 05:38:29;;;;;;;6.10;3.80;;;;;;;11.12;72.13;99123.15;101902;1301;76086;-18
2022/10/09 05:40:58;;;;;;;6.10;3.80;;;;;;;10.99;72.32;99117.63;101979;1299;75580;-19
2022/10/09 05:43:26;;;;;;;5.80;3.90;;;;;;;10.83;72.70;99111.78;101975;1304;74922;-18
2022/10/09 05:45:53;;;;;;;7.00;4.30;;;;;;;10.68;73.18;99114.21;102106;1302;61869;-18
2022/10/09 05:48:20;;;;;;;10.00;4.50;;;;;;;10.57;74.16;99117.59;102200;1301;62988;-18
2022/10/09 05:50:47;;;;;;;5.60;3.00;;;;;;;10.49;74.81;99117.10;102199;1301;76357;-18
2022/10/09 05:53:14;;;;;;;5.00;3.20;;;;;;;11.04;74.62;99114.11;102138;1294;75658;-18
2022/10/09 05:55:41;;;;;;;6.20;3.70;;;;;;;11.66;72.73;99121.27;102030;1299;74431;-19
2022/10/09 05:58:08;;;;;;;7.70;4.10;;;;;;;11.74;72.39;99128.98;102045;1302;61564;-18
2022/10/09 06:00:35;;;;;;;10.00;4.30;;;;;;;11.56;73.28;99124.98;101939;1302;62625;-18
2022/10/09 06:03:03;;;;;;;7.30;4.60;;;;;;;11.38;73.95;99125.92;101934;1301;76286;-18
2022/10/09 06:05:30;;;;;;;9.20;5.20;;;;;;;11.21;74.99;99133.39;102067;1301;77066;-18
2022/10/09 06:07:57;;;;;;;5.70;4.40;;;;;;;11.07;76.30;99135.38;102137;1301;75351;-18
2022/10/09 06:10:24;;;;;;;9.90;4.30;;;;;;;11.00;77.57;99134.90;102128;1301;63253;-18
2022/10/09 06:12:57;;;;;;;8.20;4.40;;;;;;;11.61;77.40;99137.55;102219;1300;61661;-18
2022/10/09 06:15:24;;;;;;;9.10;5.00;;;;;;;12.18;76.19;99140.98;102084;1295;76212;-18
2022/10/09 06:17:51;;;;;;;10.80;5.70;;;;;;;12.25;76.11;99139.09;101938;1293;75430;-18
2022/10/09 06:20:18;;;;;;;9.60;7.20;;;;;;;12.11;76.74;99145.41;102105;1294;75118;-18
2022/10/09 06:22:44;;;;;;;14.70;7.00;;;;;;;11.96;78.14;99141.27;102172;1300;62935;-19
2022/10/09 06:25:12;;;;;;;12.50;7.20;;;;;;;11.94;79.09;99146.75;102261;1298;61774;-18
2022/10/09 06:27:39;;;;;;;9.20;6.50;;;;;;;11.97;80.25;99148.59;102076;1301;75330;-18
2022/10/09 06:30:06;;;;;;;9.40;6.50;;;;;;;12.50;78.78;99150.50;102163;1301;75880;-18
2022/10/09 06:32:34;;;;;;;13.50;7.60;;;;;;;13.12;76.80;99145.39;101918;1304;75105;-18
2022/10/09 06:35:00;;;;;;;11.80;7.90;;;;;;;13.13;76.43;99150.89;102146;1301;62561;-18
2022/10/09 06:37:27;;;;;;;14.90;8.70;;;;;;;13.00;77.25;99149.30;102186;1294;62092;-18
2022/10/09 06:39:54;;;;;;;16.20;9.40;;;;;;;12.89;77.57;99153.66;101921;1294;76482;-18
2022/10/09 06:42:22;;;;;;;13.40;9.20;;;;;;;12.77;78.26;99153.52;102019;1299;76516;-18
2022/10/09 06:44:50;;;;;;;11.50;7.60;;;;;;;12.69;79.12;99159.66;102128;1301;75040;-18
2022/10/09 06:47:17;;;;;;;11.60;7.90;;;;;;;13.09;78.01;99164.64;102030;1301;62554;-18
2022/10/09 06:49:44;;;;;;;14.60;8.20;;;;;;;13.49;76.40;99170.68;102056;1294;61981;-19
2022/10/09 06:52:11;;;;;;;11.00;8.00;;;;;;;13.60;75.87;99174.27;102077;1301;75342;-18
2022/10/09 06:54:38;;;;;;;11.20;8.00;;;;;;;13.48;76.49;99174.48;101989;1302;75918;-18
2022/10/09 06:57:05;;;;;;;14.70;9.10;;;;;;;13.24;77.72;99173.61;102088;1298;74325;-18
2022/10/09 06:59:32;;;;;;;14.40;10.10;;;;;;;12.94;79.97;99170.88;102183;1295;62887;-18
2022/10/09 07:01:59;;;;;;;11.50;8.30;;;;;;;13.03;80.90;99173.06;102174;1300;61652;-19
2022/10/09 07:04:26;;;;;;;15.20;9.10;;;;;;;13.61;78.88;99179.71;102159;1296;75335;-19
2022/10/09 07:06:53;;;;;;;19.30;10.60;;;;;;;13.77;78.30;99185.95;102140;1299;76647;-18
2022/10/09 07:09:20;;;;;;;15.60;10.60;;;;;;;13.81;78.41;99185.68;102186;1291;75173;-18
2022/10/09 07:11:47;;;;;;;21.90;11.80;;;;;;;13.73;79.02;99187.39;102150;1295;62582;-18
2022/10/09 07:14:15;;;;;;;17.20;12.60;;;;;;;13.61;79.73;99189.82;102199;1296;61736;-18
2022/10/09 07:16:44;;;;;;;14.50;9.00;;;;;;;13.50;80.95;99192.54;102163;1294;76398;-18
2022/10/09 07:19:11;;;;;;;19.20;10.80;;;;;;;13.83;79.45;99194.77;101915;1304;74633;-18
2022/10/09 07:21:40;;;;;;;16.60;10.80;;;;;;;14.05;78.23;99191.39;102205;1294;74230;-18
2022/10/09 07:24:07;;;;;;;14.50;10.00;;;;;;;13.93;78.01;99194.44;101959;1295;62629;-19
2022/10/09 07:26:35;;;;;;;17.60;10.00;;;;;;;13.70;79.03;99204.87;101935;1301;61825;-18
2022/10/09 07:29:04;;;;;;;14.80;11.20;;;;;;;13.31;80.18;99205.27;101883;1301;76426;-18
2022/10/09 07:31:31;;;;;;;16.40;9.50;;;;;;;13.12;81.15;99211.18;101938;1301;76290;-19
2022/10/09 07:33:58;;;;;;;15.60;9.90;;;;;;;13.18;81.05;99215.26;101957;1294;73103;-18
2022/10/09 07:36:25;;;;;;;18.60;11.20;;;;;;;13.37;79.78;99220.27;102003;1294;62860;-18
2022/10/09 07:38:56;;;;;;;18.60;11.10;;;;;;;13.21;80.45;99221.48;101965;1300;62894;-18
2022/10/09 07:41:24;;;;;;;17.10;10.90;;;;;;;13.07;80.97;99223.97;101886;1305;76430;-18
2022/10/09 07:43:51;;;;;;;17.20;10.20;;;;;;;12.88;82.14;99227.17;101860;1299;76799;-19
2022/10/09 07:46:20;;;;;;;14.80;10.20;;;;;;;12.81;82.82;99229.88;101798;1295;74113;-19
2022/10/09 07:48:47;;;;;;;18.00;11.00;;;;;;;13.32;81.07;99233.04;101880;1300;62063;-18
2022/10/09 07:51:20;;;;;;;22.10;11.40;;;;;;;13.46;80.09;99237.61;101901;1301;61828;-18
2022/10/09 07:53:47;;;;;;;22.30;12.20;;;;;;;13.31;80.72;99239.91;102054;1294;76837;-18
2022/10/09 07:56:22;;;;;;;17.00;10.90;;;;;;;13.20;81.27;99244.09;101993;1301;75517;-18
2022/10/09 07:58:50;;;;;;;16.60;10.90;;;;;;;12.89;82.59;99244.80;101831;1304;75224;-18
2022/10/09 08:01:18;;;;;;;18.20;12.30;;;;;;;13.04;82.34;99243.16;101867;1304;62866;-18
2022/10/09 08:03:46;;;;;;;16.90;11.10;;;;;;;13.47;80.66;99246.56;101842;1302;61466;-18
2022/10/09 08:06:14;;;;;;;17.00;11.60;;;;;;;13.47;80.33;99251.63;102137;1301;76503;-18
2022/10/09 08:08:41;;;;;;;18.80;12.30;;;;;;;13.35;81.18;99252.01;102134;1297;76563;-18
2022/10/09 08:11:13;;;;;;;16.90;12.40;;;;;;;13.12;82.19;99252.40;101956;1295;75008;-18
2022/10/09 08:13:40;;;;;;;17.00;10.80;;;;;;;12.98;82.79;99247.08;101946;1301;63161;-18
2022/10/09 08:16:07;;;;;;;18.30;11.90;;;;;;;13.27;82.13;99251.58;101975;1294;62031;-18
2022/10/09 08:18:35;;;;;;;18.20;13.40;;;;;;;13.51;80.69;99257.91;101906;1301;76348;-18
2022/10/09 08:21:13;;;;;;;17.60;13.60;;;;;;;13.72;80.73;99262.59;101913;1301;76764;-18
2022/10/09 08:23:40;;;;;;;19.30;11.80;;;;;;;13.63;80.68;99260.17;101887;1301;74007;-18
2022/10/09 08:26:15;;;;;;;14.20;9.80;;;;;;;13.43;81.32;99259.81;101895;1301;61814;-18
2022/10/09 08:28:43;;;;;;;14.80;10.60;;;;;;;13.59;80.96;99254.73;102003;1301;62392;-18
2022/10/09 08:31:11;;;;;;;25.10;12.70;;;;;;;13.74;80.12;99265.42;102054;1292;76349;-18
2022/10/09 08:33:38;;;;;;;19.60;11.60;;;;;;;13.78;79.91;99267.85;102040;1301;76653;-18
2022/10/09 08:36:07;;;;;;;21.40;12.10;;;;;;;13.81;80.17;99268.15;102003;1300;74776;-19
2022/10/09 08:38:34;;;;;;;16.80;11.60;;;;;;;13.62;80.56;99268.64;101872;1304;61664;-18
2022/10/09 08:41:26;;;;;;;16.40;9.90;;;;;;;13.67;80.77;99268.30;102036;1292;62734;-19
2022/10/09 08:44:00;;;;;;;18.10;12.30;;;;;;;14.10;79.40;99264.89;101905;1301;76135;-18
2022/10/09 08:46:31;;;;;;;16.50;10.70;;;;;;;14.17;78.75;99266.02;101917;1302;75604;-18
2022/10/09 08:48:58;;;;;;;16.50;10.70;;;;;;;14.11;78.62;99269.92;101917;1302;73424;-18
2022/10/09 08:51:26;;;;;;;21.30;10.90;;;;;;;13.82;79.40;99264.34;102071;1301;62833;-18
2022/10/09 08:53:57;;;;;;;15.70;11.60;;;;;;;13.63;79.62;99266.96;101975;1301;61908;-18
2022/10/09 08:56:24;;;;;;;15.10;9.90;;;;;;;13.40;80.05;99267.06;101863;1304;76159;-18
2022/10/09 08:58:52;;;;;;;17.80;10.20;;;;;;;13.72;78.65;99272.24;101983;1294;76697;-19
2022/10/09 09:01:30;;;;;;;15.50;9.40;;;;;;;13.67;78.31;99271.44;102048;1294;74601;-19
2022/10/09 09:04:22;;;;;;;12.90;9.30;;;;;;;13.45;79.04;99281.98;101998;1301;61777;-19
2022/10/09 09:07:17;;;;;;;13.40;9.40;;;;;;;13.41;79.36;99284.41;101886;1301;63006;-18
2022/10/09 09:10:12;;;;;;;12.80;9.20;;;;;;;13.36;79.98;99295.31;101871;1301;75256;-19
2022/10/09 09:12:54;;;;;;;12.30;8.90;;;;;;;13.74;78.24;99295.77;101921;1304;76773;-18
2022/10/09 09:15:28;;;;;;;11.30;9.50;;;;;;;13.64;78.03;99303.79;101904;1302;73873;-18
2022/10/09 09:17:55;;;;;;;14.30;9.00;;;;;;;13.57;78.36;99309.52;101966;1303;62465;-19
2022/10/09 09:20:26;;;;;;;15.00;9.80;;;;;;;13.69;78.33;99309.09;102014;1301;61226;-18
2022/10/09 09:22:53;;;;;;;14.50;7.80;;;;;;;13.72;77.93;99312.56;101978;1294;76372;-18
2022/10/09 09:25:23;;;;;;;13.60;8.50;;;;;;;14.12;76.71;99318.48;102026;1292;76710;-18
2022/10/09 09:27:51;;;;;;;9.60;7.70;;;;;;;14.09;75.87;99316.18;101886;1298;74244;-18
2022/10/09 09:30:22;;;;;;;11.10;7.60;;;;;;;14.00;76.05;99320.27;101900;1301;62003;-18
2022/10/09 09:33:17;;;;;;;13.30;9.30;;;;;;;13.80;76.17;99320.00;101875;1303;62600;-19
2022/10/09 09:35:50;;;;;;;12.80;8.50;;;;;;;13.57;76.83;99319.13;102187;1301;76143;-18
2022/10/09 09:38:17;;;;;;;11.20;6.50;;;;;;;13.70;77.28;99326.64;102081;1294;76579;-18
2022/10/09 09:40:44;;;;;;;13.00;7.60;;;;;;;14.07;75.60;99320.02;101923;1304;74684;-19
2022/10/09 09:43:21;;;;;;;11.80;7.80;;;;;;;14.14;73.93;99321.16;102070;1301;62887;-18
2022/10/09 09:45:56;;;;;;;9.70;6.90;;;;;;;14.47;74.21;99327.02;101921;1294;61783;-18
2022/10/09 09:48:44;;;;;;;14.90;7.80;;;;;;;14.49;73.81;99329.42;101753;1291;76363;-18
2022/10/09 09:51:16;;;;;;;10.70;7.90;;;;;;;14.17;74.31;99331.54;101935;1302;76810;-18
2022/10/09 09:54:20;;;;;;;13.20;7.70;;;;;;;14.26;74.59;99334.00;102118;1295;75243;-18
2022/10/09 09:56:47;;;;;;;12.80;7.70;;;;;;;14.29;73.74;99326.19;101831;1297;63105;-18
2022/10/09 09:59:36;;;;;;;8.50;5.50;;;;;;;14.13;73.92;99322.73;101877;1295;62993;-18
2022/10/09 10:02:16;;;;;;;10.70;5.90;;;;;;;14.62;71.60;99334.91;101772;1305;75546;-18
2022/10/09 10:04:56;;;;;;;10.90;6.00;;;;;;;14.65;70.50;99329.38;101981;1302;76756;-18
2022/10/09 10:07:41;;;;;;;15.20;7.00;;;;;;;14.62;69.78;99326.35;101867;1298;74956;-18
2022/10/09 10:10:08;;;;;;;11.80;6.70;;;;;;;14.27;70.81;99319.91;101866;1304;62247;-18
2022/10/09 10:12:42;;;;;;;11.20;6.30;;;;;;;14.36;71.20;99322.23;101945;1301;62636;-18
2022/10/09 10:15:24;;;;;;;11.20;6.00;;;;;;;14.21;70.58;99326.39;101855;1302;76281;-18
2022/10/09 10:17:57;;;;;;;9.80;6.60;;;;;;;14.00;71.88;99328.52;101887;1295;75833;-18
2022/10/09 10:20:25;;;;;;;7.90;4.70;;;;;;;13.96;72.56;99335.10;101878;1302;74066;-18
2022/10/09 10:22:54;;;;;;;9.20;5.40;;;;;;;14.28;71.70;99334.81;101955;1304;62615;-18
2022/10/09 10:25:30;;;;;;;7.50;5.90;;;;;;;14.39;70.09;99333.16;101937;1297;61655;-18
2022/10/09 10:28:01;;;;;;;6.10;5.30;;;;;;;14.43;69.60;99331.08;101905;1304;75373;-18
2022/10/09 10:30:28;;;;;;;8.00;5.50;;;;;;;14.41;69.30;99324.94;101837;1298;76684;-18
2022/10/09 10:33:01;;;;;;;10.50;5.30;;;;;;;14.16;69.92;99334.35;102091;1294;75224;-18
2022/10/09 10:35:39;;;;;;;13.20;6.20;;;;;;;13.82;70.96;99333.08;101899;1302;61693;-18
2022/10/09 10:38:11;;;;;;;8.10;5.50;;;;;;;13.71;71.39;99336.48;101998;1300;62840;-18
2022/10/09 10:40:43;;;;;;;11.10;6.90;;;;;;;13.47;72.34;99339.82;102004;1301;76363;-18
2022/10/09 10:44:06;;;;;;;10.10;4.90;;;;;;;13.45;72.82;99346.33;101963;1302;76751;-18
2022/10/09 10:46:37;;;;;;;11.50;5.00;;;;;;;13.79;71.56;99349.64;101186;1307;74251;-18
2022/10/09 10:49:06;;;;;;;7.30;5.50;;;;;;;13.78;71.65;99352.30;101456;1303;62507;-18
2022/10/09 10:51:56;;;;;;;11.20;6.20;;;;;;;13.74;72.32;99349.89;101290;1306;62610;-18
2022/10/09 10:54:33;;;;;;;10.70;6.30;;;;;;;13.42;73.65;99343.99;101488;1301;75449;-18
2022/10/09 10:57:26;;;;;;;12.30;6.40;;;;;;;13.21;74.27;99340.36;101278;1307;76828;-18
2022/10/09 11:00:04;;;;;;;10.20;5.00;;;;;;;13.30;74.39;99341.72;101417;1300;75260;-18
2022/10/09 11:03:02;;;;;;;12.50;6.00;;;;;;;13.85;72.96;99341.89;101158;1309;61809;-18
2022/10/09 11:05:45;;;;;;;11.40;6.00;;;;;;;14.06;71.54;99340.85;101599;1300;62889;-18
2022/10/09 11:08:34;;;;;;;10.40;5.60;;;;;;;13.71;72.55;99341.43;101351;1293;75532;-18
2022/10/09 11:11:32;;;;;;;12.50;5.40;;;;;;;13.75;72.61;99341.21;101486;1300;75572;-18
2022/10/09 11:14:24;;;;;;;8.70;4.80;;;;;;;13.57;72.95;99335.11;101525;1307;74952;-18
2022/10/09 11:16:54;;;;;;;8.40;4.70;;;;;;;13.35;73.68;99341.45;101408;1307;61209;-18
2022/10/09 11:19:24;;;;;;;12.00;5.30;;;;;;;13.57;73.47;99341.59;101344;1306;62922;-18
2022/10/09 11:22:13;;;;;;;9.20;5.40;;;;;;;13.78;72.31;99336.23;102031;1294;75078;-18
2022/10/09 11:25:08;;;;;;;9.80;5.90;;;;;;;13.63;73.35;99331.66;102174;1302;76720;-20
2022/10/09 11:28:17;;;;;;;12.50;6.30;;;;;;;13.52;74.41;99335.39;102125;1301;75360;-18
2022/10/09 11:30:58;;;;;;;10.80;6.60;;;;;;;13.35;75.50;99337.93;101866;1304;62842;-18
2022/10/09 11:33:49;;;;;;;12.10;5.90;;;;;;;13.22;75.73;99335.73;101936;1294;61767;-18
2022/10/09 11:36:38;;;;;;;10.50;6.30;;;;;;;13.66;74.33;99343.48;102032;1301;75439;-18
2022/10/09 11:39:11;;;;;;;10.80;6.10;;;;;;;13.79;73.42;99345.54;101914;1301;76606;-18
2022/10/09 11:41:38;;;;;;;13.30;6.30;;;;;;;13.64;73.48;99333.83;101914;1305;74199;-18
2022/10/09 11:44:27;;;;;;;11.50;6.20;;;;;;;13.51;74.45;99345.44;101985;1302;62524;-18